createdAt,value
2018-06-10T00:00:24.208Z,21.50
2018-06-10T00:02:51.664Z,20.90
2018-06-10T00:05:19.134Z,20.90
2018-06-10T00:07:46.630Z,21.30
2018-06-10T00:10:14.184Z,20.80
2018-06-10T00:12:41.748Z,20.50
2018-06-10T00:15:09.216Z,20.80
2018-06-10T00:17:36.670Z,20.90
2018-06-10T00:20:04.811Z,21.00
2018-06-10T00:22:32.278Z,21.30
2018-06-10T00:25:00.630Z,20.60
2018-06-10T00:27:28.055Z,20.60
2018-06-10T00:29:55.511Z,20.50
2018-06-10T00:32:22.980Z,20.80
2018-06-10T00:34:50.445Z,21.00
2018-06-10T00:37:17.907Z,20.50
2018-06-10T00:39:45.370Z,20.50
2018-06-10T00:42:12.933Z,20.20
2018-06-10T00:44:40.384Z,20.60
2018-06-10T00:47:07.855Z,20.40
2018-06-10T00:49:35.323Z,20.60
2018-06-10T00:52:02.782Z,20.40
2018-06-10T00:54:30.247Z,19.90
2018-06-10T00:56:57.718Z,20.40
2018-06-10T00:59:25.185Z,20.60
2018-06-10T01:01:53.422Z,20.30
2018-06-10T01:04:20.917Z,20.30
2018-06-10T01:06:48.383Z,20.50
2018-06-10T01:09:17.365Z,20.60
2018-06-10T01:11:44.810Z,20.60
2018-06-10T01:14:12.276Z,20.60
2018-06-10T01:16:39.731Z,20.30
2018-06-10T01:19:07.194Z,20.00
2018-06-10T01:21:35.050Z,19.80
2018-06-10T01:24:02.501Z,19.70
2018-06-10T01:26:29.973Z,19.80
2018-06-10T01:28:57.448Z,19.80
2018-06-10T01:31:24.900Z,19.80
2018-06-10T01:33:52.380Z,19.50
2018-06-10T01:36:19.832Z,19.70
2018-06-10T01:38:47.305Z,19.50
2018-06-10T01:41:14.776Z,19.40
2018-06-10T01:43:42.339Z,19.70
2018-06-10T01:46:09.909Z,19.70
2018-06-10T01:48:37.379Z,19.30
2018-06-10T01:51:04.855Z,19.50
2018-06-10T01:53:33.922Z,19.30
2018-06-10T01:56:01.373Z,19.30
2018-06-10T01:58:28.836Z,19.00
2018-06-10T02:00:56.330Z,19.10
2018-06-10T02:03:23.783Z,19.60
2018-06-10T02:05:51.358Z,19.70
2018-06-10T02:08:18.919Z,19.80
2018-06-10T02:10:46.371Z,19.60
2018-06-10T02:13:13.848Z,19.30
2018-06-10T02:15:41.304Z,19.60
2018-06-10T02:18:08.754Z,19.80
2018-06-10T02:20:36.207Z,19.90
2018-06-10T02:23:03.670Z,19.80
2018-06-10T02:25:31.145Z,19.30
2018-06-10T02:27:58.604Z,19.30
2018-06-10T02:30:26.065Z,19.40
2018-06-10T02:32:53.540Z,19.80
2018-06-10T02:35:21.115Z,19.50
2018-06-10T02:37:49.335Z,19.50
2018-06-10T02:40:16.819Z,19.40
2018-06-10T02:42:44.273Z,19.50
2018-06-10T02:45:11.762Z,19.00
2018-06-10T02:47:39.232Z,19.50
2018-06-10T02:50:06.783Z,19.50
2018-06-10T02:52:34.240Z,19.40
2018-06-10T02:55:01.716Z,19.50
2018-06-10T02:57:29.272Z,19.20
2018-06-10T02:59:56.834Z,19.00
2018-06-10T03:02:24.410Z,18.90
2018-06-10T03:04:51.870Z,19.30
2018-06-10T03:07:19.336Z,19.30
2018-06-10T03:09:46.791Z,19.40
2018-06-10T03:12:14.258Z,19.60
2018-06-10T03:14:41.816Z,19.10
2018-06-10T03:17:09.290Z,18.90
2018-06-10T03:19:38.279Z,19.50
2018-06-10T03:22:05.841Z,19.50
2018-06-10T03:24:33.293Z,19.20
2018-06-10T03:27:00.757Z,19.00
2018-06-10T03:29:29.001Z,18.90
2018-06-10T03:31:56.457Z,19.20
2018-06-10T03:34:23.926Z,19.30
2018-06-10T03:36:51.391Z,18.70
2018-06-10T03:39:18.861Z,18.50
2018-06-10T03:41:46.328Z,18.70
2018-06-10T03:44:13.781Z,19.00
2018-06-10T03:46:41.259Z,19.10
2018-06-10T03:49:08.752Z,18.80
2018-06-10T03:51:36.216Z,18.60
2018-06-10T03:54:03.775Z,18.20
2018-06-10T03:56:31.242Z,18.30
2018-06-10T03:59:00.214Z,18.80
2018-06-10T04:01:27.668Z,18.80
2018-06-10T04:03:55.143Z,18.80
2018-06-10T04:06:22.711Z,18.70
2018-06-10T04:08:50.277Z,18.70
2018-06-10T04:11:17.731Z,18.30
2018-06-10T04:13:45.183Z,18.20
2018-06-10T04:16:12.647Z,18.20
2018-06-10T04:18:40.116Z,18.20
2018-06-10T04:21:07.592Z,18.40
2018-06-10T04:23:35.046Z,18.10
2018-06-10T04:26:02.620Z,18.20
2018-06-10T04:28:30.085Z,17.90
2018-06-10T04:30:57.639Z,18.00
2018-06-10T04:33:25.111Z,18.10
2018-06-10T04:35:53.441Z,18.10
2018-06-10T04:38:20.971Z,18.20
2018-06-10T04:40:49.931Z,18.20
2018-06-10T04:43:17.391Z,18.20
2018-06-10T04:45:44.853Z,18.40
2018-06-10T04:48:12.312Z,18.50
2018-06-10T04:50:39.776Z,18.40
2018-06-10T04:53:07.318Z,18.00
2018-06-10T04:55:34.720Z,18.20
2018-06-10T04:58:02.190Z,18.20
2018-06-10T05:00:29.743Z,18.00
2018-06-10T05:02:57.195Z,18.00
2018-06-10T05:05:24.763Z,18.00
2018-06-10T05:07:52.259Z,18.00
2018-06-10T05:10:20.562Z,17.90
2018-06-10T05:12:48.077Z,17.90
2018-06-10T05:15:15.528Z,18.40
2018-06-10T05:17:43.091Z,18.00
2018-06-10T05:20:10.567Z,18.00
2018-06-10T05:22:38.009Z,18.10
2018-06-10T05:25:05.523Z,18.10
2018-06-10T05:27:33.801Z,18.10
2018-06-10T05:30:02.027Z,18.00
2018-06-10T05:32:29.489Z,18.00
2018-06-10T05:34:56.970Z,18.00
2018-06-10T05:37:25.210Z,17.70
2018-06-10T05:39:52.667Z,17.70
2018-06-10T05:42:20.434Z,17.70
2018-06-10T05:44:47.908Z,17.90
2018-06-10T05:47:15.358Z,18.00
2018-06-10T05:49:42.879Z,18.00
2018-06-10T05:52:10.318Z,18.00
2018-06-10T05:54:37.889Z,17.80
2018-06-10T05:57:05.461Z,17.70
2018-06-10T05:59:33.694Z,18.00
2018-06-10T06:02:01.159Z,18.00
2018-06-10T06:04:28.614Z,18.30
2018-06-10T06:06:56.141Z,18.20
2018-06-10T06:09:24.417Z,18.10
2018-06-10T06:11:51.964Z,18.10
2018-06-10T06:14:19.414Z,18.20
2018-06-10T06:16:46.877Z,18.20
2018-06-10T06:19:14.341Z,18.10
2018-06-10T06:21:41.920Z,18.00
2018-06-10T06:24:09.384Z,18.10
2018-06-10T06:26:36.858Z,17.90
2018-06-10T06:29:05.090Z,18.20
2018-06-10T06:31:32.551Z,18.20
2018-06-10T06:34:00.012Z,18.30
2018-06-10T06:36:27.501Z,18.20
2018-06-10T06:38:54.946Z,18.40
2018-06-10T06:41:22.403Z,18.40
2018-06-10T06:43:49.885Z,18.40
2018-06-10T06:46:17.340Z,18.20
2018-06-10T06:48:45.280Z,18.40
2018-06-10T06:51:12.742Z,18.20
2018-06-10T06:53:40.203Z,18.20
2018-06-10T06:56:07.666Z,18.20
2018-06-10T06:58:35.140Z,18.50
2018-06-10T07:01:02.600Z,18.40
2018-06-10T07:03:30.075Z,18.40
2018-06-10T07:05:57.545Z,18.30
2018-06-10T07:08:24.999Z,18.40
2018-06-10T07:10:52.458Z,18.40
2018-06-10T07:13:20.045Z,18.30
2018-06-10T07:15:47.609Z,18.40
2018-06-10T07:18:15.170Z,18.40
2018-06-10T07:20:42.650Z,18.50
2018-06-10T07:23:10.199Z,18.50
2018-06-10T07:25:37.653Z,18.20
2018-06-10T07:28:05.225Z,18.30
2018-06-10T07:30:32.689Z,18.30
2018-06-10T07:33:00.149Z,18.60
2018-06-10T07:35:27.607Z,18.60
2018-06-10T07:37:55.070Z,18.60
2018-06-10T07:40:22.536Z,18.70
2018-06-10T07:42:49.997Z,18.70
2018-06-10T07:45:17.516Z,18.70
2018-06-10T07:47:44.959Z,18.80
2018-06-10T07:50:13.237Z,18.90
2018-06-10T07:52:41.489Z,19.00
2018-06-10T07:55:08.946Z,18.90
2018-06-10T07:57:36.411Z,18.80
2018-06-10T08:00:03.908Z,18.80
2018-06-10T08:02:31.344Z,18.90
2018-06-10T08:04:58.808Z,19.00
2018-06-10T08:07:26.356Z,19.00
2018-06-10T08:09:53.839Z,19.10
2018-06-10T08:12:22.059Z,19.10
2018-06-10T08:14:49.507Z,19.10
2018-06-10T08:17:16.992Z,19.10
2018-06-10T08:19:44.448Z,19.10
2018-06-10T08:22:11.951Z,19.10
2018-06-10T08:24:39.423Z,19.20
2018-06-10T08:27:08.386Z,19.00
2018-06-10T08:29:35.873Z,19.00
2018-06-10T08:32:03.397Z,19.00
2018-06-10T08:34:30.784Z,19.00
2018-06-10T08:36:58.248Z,19.30
2018-06-10T08:39:25.717Z,19.30
2018-06-10T08:41:53.167Z,19.40
2018-06-10T08:44:20.643Z,19.50
2018-06-10T08:46:48.108Z,19.50
2018-06-10T08:49:15.564Z,19.50
2018-06-10T08:51:43.129Z,19.60
2018-06-10T08:54:10.579Z,19.60
2018-06-10T08:56:38.048Z,19.50
2018-06-10T08:59:05.631Z,19.50
2018-06-10T09:01:34.216Z,19.60
2018-06-10T09:04:01.837Z,19.70
2018-06-10T09:06:29.301Z,19.80
2018-06-10T09:08:56.779Z,19.80
2018-06-10T09:11:24.258Z,19.90
2018-06-10T09:13:51.732Z,20.00
2018-06-10T09:16:19.327Z,20.00
2018-06-10T09:18:47.545Z,20.00
2018-06-10T09:21:15.006Z,20.00
2018-06-10T09:23:42.467Z,20.10
2018-06-10T09:26:09.943Z,20.10
2018-06-10T09:28:37.419Z,20.20
2018-06-10T09:31:04.967Z,20.30
2018-06-10T09:33:32.425Z,20.40
2018-06-10T09:35:59.997Z,20.50
2018-06-10T09:38:27.491Z,20.60
2018-06-10T09:40:55.740Z,20.60
2018-06-10T09:43:23.961Z,20.70
2018-06-10T09:45:52.187Z,20.70
2018-06-10T09:48:19.647Z,20.70
2018-06-10T09:50:47.132Z,20.70
2018-06-10T09:53:14.588Z,20.70
2018-06-10T09:55:42.190Z,21.00
2018-06-10T09:58:09.528Z,21.00
2018-06-10T10:00:37.756Z,21.20
2018-06-10T10:03:05.219Z,21.10
2018-06-10T10:05:32.679Z,21.20
2018-06-10T10:08:01.816Z,21.20
2018-06-10T10:10:29.274Z,21.20
2018-06-10T10:12:56.834Z,21.10
2018-06-10T10:15:24.317Z,21.10
2018-06-10T10:17:51.829Z,20.90
2018-06-10T10:20:19.453Z,21.00
2018-06-10T10:22:46.995Z,21.10
2018-06-10T10:25:14.442Z,21.20
2018-06-10T10:27:41.923Z,21.40
2018-06-10T10:30:09.388Z,21.40
2018-06-10T10:32:36.854Z,21.30
2018-06-10T10:35:04.307Z,21.30
2018-06-10T10:37:31.792Z,21.50
2018-06-10T10:39:59.247Z,21.70
2018-06-10T10:42:28.237Z,21.70
2018-06-10T10:44:55.701Z,21.70
2018-06-10T10:47:23.926Z,21.60
2018-06-10T10:49:51.395Z,21.50
2018-06-10T10:52:18.860Z,21.50
2018-06-10T10:54:46.320Z,21.40
2018-06-10T10:57:13.783Z,21.30
2018-06-10T10:59:41.287Z,21.30
2018-06-10T11:02:08.736Z,21.20
2018-06-10T11:04:36.214Z,21.40
2018-06-10T11:07:03.680Z,21.50
2018-06-10T11:09:31.142Z,21.60
2018-06-10T11:11:58.611Z,21.50
2018-06-10T11:14:27.763Z,21.60
2018-06-10T11:16:55.204Z,21.60
2018-06-10T11:19:22.665Z,21.40
2018-06-10T11:21:50.126Z,21.50
2018-06-10T11:24:17.595Z,21.60
2018-06-10T11:26:45.100Z,21.70
2018-06-10T11:29:12.559Z,22.00
2018-06-10T11:31:40.011Z,22.10
2018-06-10T11:34:07.588Z,21.80
2018-06-10T11:36:35.041Z,21.70
2018-06-10T11:39:02.515Z,21.70
2018-06-10T11:41:29.963Z,21.60
2018-06-10T11:43:57.447Z,21.70
2018-06-10T11:46:24.895Z,21.90
2018-06-10T11:48:52.464Z,21.90
2018-06-10T11:51:20.036Z,22.00
2018-06-10T11:53:47.517Z,22.00
2018-06-10T11:56:15.747Z,22.30
2018-06-10T11:58:43.229Z,22.20
2018-06-10T12:01:10.691Z,22.20
2018-06-10T12:03:38.176Z,22.30
2018-06-10T12:06:06.432Z,22.50
2018-06-10T12:08:33.891Z,22.50
2018-06-10T12:11:01.359Z,22.30
2018-06-10T12:13:28.807Z,22.50
2018-06-10T12:15:56.267Z,22.60
2018-06-10T12:18:23.736Z,22.60
2018-06-10T12:20:51.996Z,22.80
2018-06-10T12:23:20.928Z,22.90
2018-06-10T12:25:49.169Z,22.90
2018-06-10T12:28:16.625Z,22.90
2018-06-10T12:30:44.116Z,22.80
2018-06-10T12:33:11.561Z,22.60
2018-06-10T12:35:39.032Z,22.60
2018-06-10T12:38:06.511Z,22.60
2018-06-10T12:40:33.975Z,22.80
2018-06-10T12:43:01.533Z,23.10
2018-06-10T12:45:29.006Z,22.70
2018-06-10T12:47:56.459Z,22.80
2018-06-10T12:50:23.942Z,22.80
2018-06-10T12:52:51.493Z,22.50
2018-06-10T12:55:18.952Z,22.80
2018-06-10T12:57:46.425Z,23.10
2018-06-10T13:00:13.886Z,23.10
2018-06-10T13:02:41.353Z,23.20
2018-06-10T13:05:09.624Z,22.90
2018-06-10T13:07:37.084Z,22.90
2018-06-10T13:10:04.544Z,23.20
2018-06-10T13:12:32.118Z,23.40
2018-06-10T13:14:59.570Z,23.60
2018-06-10T13:17:27.231Z,23.30
2018-06-10T13:19:54.810Z,23.50
2018-06-10T13:22:22.274Z,23.60
2018-06-10T13:24:49.745Z,23.10
2018-06-10T13:27:17.199Z,23.30
2018-06-10T13:29:45.475Z,23.20
2018-06-10T13:32:12.947Z,23.20
2018-06-10T13:34:40.400Z,23.20
2018-06-10T13:37:08.921Z,23.60
2018-06-10T13:39:37.140Z,23.80
2018-06-10T13:42:04.616Z,23.80
2018-06-10T13:44:32.088Z,23.60
2018-06-10T13:46:59.544Z,23.70
2018-06-10T13:49:27.014Z,24.20
2018-06-10T13:51:55.246Z,23.90
2018-06-10T13:54:22.696Z,23.80
2018-06-10T13:56:50.269Z,24.10
2018-06-10T13:59:17.725Z,24.30
2018-06-10T14:01:45.955Z,24.20
2018-06-10T14:04:13.466Z,24.20
2018-06-10T14:06:42.430Z,23.50
2018-06-10T14:09:10.652Z,23.80
2018-06-10T14:11:38.154Z,23.70
2018-06-10T14:14:05.627Z,24.00
2018-06-10T14:16:34.612Z,24.10
2018-06-10T14:19:02.080Z,24.10
2018-06-10T14:21:29.527Z,24.10
2018-06-10T14:23:56.988Z,24.00
2018-06-10T14:26:24.463Z,24.60
2018-06-10T14:28:53.052Z,24.20
2018-06-10T14:31:20.516Z,24.20
2018-06-10T14:33:47.981Z,24.20
2018-06-10T14:36:16.266Z,23.90
2018-06-10T14:38:43.748Z,24.00
2018-06-10T14:41:11.199Z,24.20
2018-06-10T14:43:38.739Z,24.30
2018-06-10T14:46:06.298Z,24.10
2018-06-10T14:48:33.981Z,24.20
2018-06-10T14:51:02.948Z,24.80
2018-06-10T14:53:30.403Z,24.80
2018-06-10T14:55:57.880Z,25.00
2018-06-10T14:58:25.339Z,24.50
2018-06-10T15:00:52.798Z,24.60
2018-06-10T15:03:20.259Z,24.60
2018-06-10T15:05:47.739Z,24.70
2018-06-10T15:08:16.338Z,24.60
2018-06-10T15:10:44.567Z,24.80
2018-06-10T15:13:12.063Z,24.80
2018-06-10T15:15:39.532Z,24.20
2018-06-10T15:18:06.992Z,24.50
2018-06-10T15:20:34.474Z,24.30
2018-06-10T15:23:01.931Z,24.00
2018-06-10T15:25:30.238Z,24.30
2018-06-10T15:27:58.462Z,24.00
2018-06-10T15:30:25.927Z,24.00
2018-06-10T15:32:53.403Z,23.70
2018-06-10T15:35:20.880Z,24.40
2018-06-10T15:37:48.342Z,24.40
2018-06-10T15:40:15.796Z,24.00
2018-06-10T15:42:43.259Z,24.10
2018-06-10T15:45:10.723Z,24.20
2018-06-10T15:47:38.185Z,24.80
2018-06-10T15:50:05.764Z,24.40
2018-06-10T15:52:34.033Z,23.90
2018-06-10T15:55:03.703Z,24.00
2018-06-10T15:57:31.175Z,24.00
2018-06-10T15:59:58.719Z,24.60
2018-06-10T16:02:26.179Z,24.50
2018-06-10T16:04:53.683Z,24.00
2018-06-10T16:07:21.160Z,23.90
2018-06-10T16:09:50.118Z,24.30
2018-06-10T16:12:17.579Z,24.30
2018-06-10T16:14:45.032Z,24.30
2018-06-10T16:17:12.536Z,24.40
2018-06-10T16:19:39.986Z,24.20
2018-06-10T16:22:07.451Z,24.40
2018-06-10T16:24:34.920Z,24.80
2018-06-10T16:27:02.390Z,24.30
2018-06-10T16:29:29.855Z,25.50
2018-06-10T16:31:58.085Z,25.00
2018-06-10T16:34:25.553Z,25.00
2018-06-10T16:36:53.011Z,24.60
2018-06-10T16:39:20.482Z,25.00
2018-06-10T16:41:49.127Z,24.90
2018-06-10T16:44:17.437Z,24.60
2018-06-10T16:46:44.883Z,24.50
2018-06-10T16:51:41.176Z,24.90
2018-06-10T16:54:08.669Z,24.50
2018-06-10T16:56:36.900Z,23.80
2018-06-10T16:59:04.396Z,23.80
2018-06-10T17:01:31.964Z,23.90
2018-06-10T17:04:00.676Z,24.90
2018-06-10T17:06:28.892Z,24.90
2018-06-10T17:08:56.349Z,24.30
2018-06-10T17:11:23.808Z,24.60
2018-06-10T17:13:51.267Z,24.50
2018-06-10T17:16:18.732Z,24.60
2018-06-10T17:18:46.196Z,24.10
2018-06-10T17:21:13.656Z,24.20
2018-06-10T17:23:41.121Z,24.10
2018-06-10T17:26:08.646Z,24.40
2018-06-10T17:28:37.604Z,24.10
2018-06-10T17:31:05.831Z,24.10
2018-06-10T17:33:34.080Z,24.20
2018-06-10T17:36:01.545Z,24.20
2018-06-10T17:38:29.008Z,23.90
2018-06-10T17:40:56.573Z,23.40
2018-06-10T17:43:24.131Z,23.50
2018-06-10T17:45:51.612Z,23.70
2018-06-10T17:48:20.586Z,23.70
2018-06-10T17:50:48.884Z,24.20
2018-06-10T17:53:16.337Z,24.10
2018-06-10T17:55:43.905Z,23.50
2018-06-10T17:58:11.370Z,23.40
2018-06-10T18:00:40.364Z,23.40
2018-06-10T18:03:07.936Z,23.40
2018-06-10T18:05:35.398Z,23.10
2018-06-10T18:08:02.853Z,23.10
2018-06-10T18:10:30.309Z,23.60
2018-06-10T18:12:58.693Z,23.40
2018-06-10T18:15:26.135Z,24.20
2018-06-10T18:17:53.616Z,24.10
2018-06-10T18:20:21.175Z,23.20
2018-06-10T18:22:48.644Z,23.70
2018-06-10T18:25:16.109Z,24.40
2018-06-10T18:27:43.684Z,23.80
2018-06-10T18:30:11.149Z,23.40
2018-06-10T18:32:38.829Z,23.80
2018-06-10T18:35:07.219Z,22.90
2018-06-10T18:37:35.455Z,23.50
2018-06-10T18:40:03.037Z,23.40
2018-06-10T18:42:31.263Z,23.10
2018-06-10T18:44:58.739Z,23.10
2018-06-10T18:47:26.239Z,23.10
2018-06-10T18:49:53.709Z,23.10
2018-06-10T18:52:21.941Z,24.20
2018-06-10T18:54:49.399Z,24.10
2018-06-10T18:57:16.879Z,23.60
2018-06-10T18:59:44.380Z,23.10
2018-06-10T19:02:11.935Z,23.80
2018-06-10T19:04:40.158Z,23.50
2018-06-10T19:07:07.676Z,23.50
2018-06-10T19:09:35.930Z,23.30
2018-06-10T19:12:03.409Z,23.30
2018-06-10T19:14:30.888Z,23.80
2018-06-10T19:16:58.358Z,24.00
2018-06-10T19:19:25.816Z,23.20
2018-06-10T19:21:53.277Z,23.10
2018-06-10T19:24:21.864Z,22.90
2018-06-10T19:26:50.104Z,23.50
2018-06-10T19:29:17.566Z,23.50
2018-06-10T19:31:45.029Z,23.30
2018-06-10T19:34:12.483Z,22.60
2018-06-10T19:36:40.799Z,22.70
2018-06-10T19:39:08.293Z,22.70
2018-06-10T19:41:36.640Z,22.40
2018-06-10T19:44:04.201Z,22.40
2018-06-10T19:46:31.669Z,22.70
2018-06-10T19:48:59.904Z,22.10
2018-06-10T19:51:27.362Z,22.10
2018-06-10T19:53:54.841Z,22.00
2018-06-10T19:56:22.315Z,22.00
2018-06-10T19:58:49.791Z,22.10
2018-06-10T20:01:17.860Z,22.40
2018-06-10T20:03:45.445Z,22.80
2018-06-10T20:06:12.992Z,22.70
2018-06-10T20:08:40.465Z,22.60
2018-06-10T20:11:09.544Z,21.70
2018-06-10T20:13:37.782Z,21.70
2018-06-10T20:16:05.996Z,21.90
2018-06-10T20:18:33.459Z,21.90
2018-06-10T20:21:00.927Z,22.30
2018-06-10T20:23:28.391Z,22.60
2018-06-10T20:25:55.851Z,22.70
2018-06-10T20:28:23.315Z,22.30
2018-06-10T20:30:50.780Z,22.20
2018-06-10T20:33:18.252Z,21.80
2018-06-10T20:35:46.733Z,22.00
2018-06-10T20:38:14.184Z,22.30
2018-06-10T20:40:41.764Z,22.90
2018-06-10T20:43:09.330Z,22.60
2018-06-10T20:45:36.785Z,23.20
2018-06-10T20:48:04.244Z,23.10
2018-06-10T20:50:31.709Z,22.60
2018-06-10T20:52:59.193Z,23.00
2018-06-10T20:55:27.455Z,22.40
2018-06-10T20:57:55.678Z,22.40
2018-06-10T21:00:23.214Z,22.40
2018-06-10T21:02:51.439Z,21.20
2018-06-10T21:05:18.899Z,21.20
2018-06-10T21:07:47.116Z,21.70
2018-06-10T21:10:14.683Z,21.70
2018-06-10T21:12:42.239Z,21.40
2018-06-10T21:15:09.704Z,21.20
2018-06-10T21:17:37.163Z,21.30
2018-06-10T21:20:04.623Z,21.10
2018-06-10T21:22:32.083Z,21.00
2018-06-10T21:24:59.539Z,20.70
2018-06-10T21:27:27.031Z,21.10
2018-06-10T21:29:54.577Z,21.30
2018-06-10T21:32:22.148Z,21.40
2018-06-10T21:34:49.610Z,21.40
2018-06-10T21:37:20.557Z,21.60
2018-06-10T21:39:49.525Z,21.60
2018-06-10T21:42:16.983Z,21.60
2018-06-10T21:44:44.441Z,20.80
2018-06-10T21:47:11.907Z,21.40
2018-06-10T21:49:39.379Z,21.10
2018-06-10T21:52:06.830Z,20.80
2018-06-10T21:54:34.307Z,21.10
2018-06-10T21:57:01.755Z,21.40
2018-06-10T21:59:29.224Z,21.80
2018-06-10T22:01:56.680Z,21.80
2018-06-10T22:04:24.158Z,21.40
2018-06-10T22:06:51.607Z,21.60
2018-06-10T22:09:19.072Z,21.80
2018-06-10T22:11:46.519Z,21.50
2018-06-10T22:14:13.999Z,21.70
2018-06-10T22:16:41.466Z,21.80
2018-06-10T22:19:09.037Z,21.30
2018-06-10T22:21:36.507Z,21.10
2018-06-10T22:24:04.772Z,20.50
2018-06-10T22:26:32.242Z,20.50
2018-06-10T22:28:59.703Z,20.70
2018-06-10T22:31:27.175Z,20.10
2018-06-10T22:33:55.392Z,20.30
2018-06-10T22:36:22.865Z,20.20
2018-06-10T22:38:51.952Z,19.90
2018-06-10T22:41:20.171Z,19.60
2018-06-10T22:43:47.740Z,19.60
2018-06-10T22:46:15.205Z,19.70
2018-06-10T22:48:42.766Z,19.70
2018-06-10T22:51:10.222Z,20.00
2018-06-10T22:53:37.695Z,20.40
2018-06-10T22:56:05.153Z,20.40
2018-06-10T22:58:32.607Z,20.50
2018-06-10T23:01:00.099Z,20.10
2018-06-10T23:03:27.548Z,19.60
2018-06-10T23:05:55.019Z,19.30
2018-06-10T23:08:23.287Z,20.30
2018-06-10T23:10:50.803Z,20.30
2018-06-10T23:13:18.315Z,20.50
2018-06-10T23:15:45.768Z,19.90
2018-06-10T23:18:13.332Z,20.40
2018-06-10T23:20:40.803Z,19.70
2018-06-10T23:23:08.255Z,19.20
2018-06-10T23:25:35.817Z,19.40
2018-06-10T23:28:03.286Z,19.10
2018-06-10T23:30:30.741Z,19.20
2018-06-10T23:32:58.300Z,19.70
2018-06-10T23:35:25.755Z,19.80
2018-06-10T23:37:53.243Z,19.60
2018-06-10T23:40:20.990Z,19.00
2018-06-10T23:42:48.577Z,18.70
2018-06-10T23:45:17.558Z,18.90
2018-06-10T23:47:45.021Z,18.90
2018-06-10T23:50:12.613Z,19.10
2018-06-10T23:52:40.845Z,19.40
2018-06-10T23:55:08.323Z,19.40
2018-06-10T23:57:35.783Z,19.30
